createdAt,value
2018-04-15T00:02:18.080Z,9.48
2018-04-15T00:04:45.631Z,8.63
2018-04-15T00:07:13.189Z,8.97
2018-04-15T00:09:41.135Z,8.77
2018-04-15T00:12:09.084Z,8.30
2018-04-15T00:14:36.642Z,9.10
2018-04-15T00:17:04.533Z,8.63
2018-04-15T00:19:32.083Z,8.80
2018-04-15T00:21:59.640Z,9.20
2018-04-15T00:24:27.225Z,10.27
2018-04-15T00:26:54.773Z,9.07
2018-04-15T00:29:22.746Z,9.87
2018-04-15T00:31:50.304Z,9.87
2018-04-15T00:34:18.317Z,9.33
2018-04-15T00:36:46.667Z,9.40
2018-04-15T00:39:14.284Z,9.10
2018-04-15T00:41:41.845Z,9.90
2018-04-15T00:44:09.400Z,9.40
2018-04-15T00:46:37.015Z,10.83
2018-04-15T00:49:04.568Z,9.90
2018-04-15T00:51:33.413Z,8.73
2018-04-15T00:54:12.894Z,7.77
2018-04-15T00:56:41.470Z,7.53
2018-04-15T00:59:09.733Z,7.53
2018-04-15T01:01:37.365Z,6.63
2018-04-15T01:04:05.060Z,7.37
2018-04-15T01:06:32.648Z,7.30
2018-04-15T01:09:00.461Z,6.93
2018-04-15T01:11:28.029Z,6.97
2018-04-15T01:13:55.588Z,6.70
2018-04-15T01:16:23.167Z,6.47
2018-04-15T01:18:51.458Z,6.72
2018-04-15T01:21:19.417Z,6.73
2018-04-15T01:23:47.409Z,5.90
2018-04-15T01:26:16.159Z,7.63
2018-04-15T01:28:43.704Z,7.18
2018-04-15T01:31:11.396Z,6.60
2018-04-15T01:33:39.348Z,6.40
2018-04-15T01:36:07.030Z,5.60
2018-04-15T01:38:34.704Z,5.20
2018-04-15T01:41:03.531Z,5.60
2018-04-15T01:43:31.084Z,5.83
2018-04-15T01:45:58.645Z,5.50
2018-04-15T01:48:26.296Z,5.72
2018-04-15T01:50:53.868Z,5.63
2018-04-15T01:53:21.402Z,4.73
2018-04-15T01:55:48.980Z,5.50
2018-04-15T01:58:16.540Z,5.50
2018-04-15T02:00:44.082Z,7.72
2018-04-15T02:03:11.676Z,8.90
2018-04-15T02:05:39.294Z,9.37
2018-04-15T02:08:08.013Z,10.17
2018-04-15T02:10:35.625Z,9.57
2018-04-15T02:13:04.267Z,9.40
2018-04-15T02:15:31.833Z,9.30
2018-04-15T02:18:00.045Z,9.90
2018-04-15T02:20:27.626Z,9.53
2018-04-15T02:22:55.993Z,9.63
2018-04-15T02:25:23.964Z,10.82
2018-04-15T02:27:51.936Z,10.80
2018-04-15T02:30:19.804Z,9.63
2018-04-15T02:32:47.382Z,11.70
2018-04-15T02:35:15.094Z,10.37
2018-04-15T02:37:42.750Z,10.70
2018-04-15T02:40:12.181Z,10.13
2018-04-15T02:42:39.773Z,10.50
2018-04-15T02:45:07.580Z,10.40
2018-04-15T02:47:35.135Z,10.70
2018-04-15T02:50:02.703Z,10.55
2018-04-15T02:52:30.263Z,10.60
2018-04-15T02:54:57.884Z,9.60
2018-04-15T02:57:25.467Z,9.90
2018-04-15T02:59:53.861Z,9.60
2018-04-15T03:02:22.097Z,9.63
2018-04-15T03:04:49.692Z,10.60
2018-04-15T03:07:18.151Z,10.70
2018-04-15T03:09:45.849Z,10.00
2018-04-15T03:12:13.544Z,10.67
2018-04-15T03:14:41.084Z,10.63
2018-04-15T03:17:09.039Z,10.57
2018-04-15T03:19:36.692Z,10.83
2018-04-15T03:22:04.287Z,9.30
2018-04-15T03:24:32.275Z,9.85
2018-04-15T03:26:59.922Z,9.03
2018-04-15T03:29:27.531Z,8.80
2018-04-15T03:31:55.170Z,9.17
2018-04-15T03:34:23.702Z,7.90
2018-04-15T03:36:51.297Z,9.07
2018-04-15T03:39:19.498Z,8.17
2018-04-15T03:41:47.162Z,10.30
2018-04-15T03:44:14.728Z,10.60
2018-04-15T03:46:42.316Z,10.30
2018-04-15T03:49:09.907Z,11.00
2018-04-15T03:51:37.865Z,12.80
2018-04-15T03:54:05.847Z,11.60
2018-04-15T03:56:33.432Z,12.30
2018-04-15T03:59:01.025Z,11.93
2018-04-15T04:01:28.617Z,11.40
2018-04-15T04:03:56.706Z,10.50
2018-04-15T04:06:24.259Z,10.57
2018-04-15T04:08:52.193Z,9.90
2018-04-15T04:11:19.817Z,9.57
2018-04-15T04:13:47.344Z,8.93
2018-04-15T04:16:15.441Z,8.23
2018-04-15T04:18:54.822Z,8.53
2018-04-15T04:21:34.123Z,7.53
2018-04-15T04:24:13.400Z,7.62
2018-04-15T04:26:40.975Z,6.97
2018-04-15T04:29:08.936Z,6.53
2018-04-15T04:31:36.908Z,8.43
2018-04-15T04:34:05.762Z,8.27
2018-04-15T04:36:33.372Z,8.33
2018-04-15T04:39:01.293Z,8.67
2018-04-15T04:41:29.688Z,8.37
2018-04-15T04:43:57.277Z,8.30
2018-04-15T04:46:24.867Z,9.18
2018-04-15T04:48:54.451Z,9.20
2018-04-15T04:51:22.480Z,9.20
2018-04-15T04:53:50.090Z,8.87
2018-04-15T04:56:17.647Z,9.13
2018-04-15T04:58:45.239Z,9.13
2018-04-15T05:01:12.840Z,8.00
2018-04-15T05:03:40.751Z,8.60
2018-04-15T05:06:08.798Z,8.65
2018-04-15T05:08:36.368Z,8.73
2018-04-15T05:11:05.612Z,9.30
2018-04-15T05:13:33.197Z,8.97
2018-04-15T05:16:01.181Z,8.98
2018-04-15T05:18:29.124Z,8.32
2018-04-15T05:20:56.724Z,9.15
2018-04-15T05:23:24.659Z,8.33
2018-04-15T05:25:52.221Z,8.97
2018-04-15T05:28:20.188Z,7.37
2018-04-15T05:30:48.181Z,8.80
2018-04-15T05:33:15.785Z,9.23
2018-04-15T05:35:44.128Z,10.33
2018-04-15T05:38:11.737Z,11.02
2018-04-15T05:40:39.270Z,10.40
2018-04-15T05:43:06.862Z,10.02
2018-04-15T05:45:34.391Z,9.40
2018-04-15T05:48:01.950Z,9.67
2018-04-15T05:50:29.542Z,9.40
2018-04-15T05:52:57.118Z,9.87
2018-04-15T05:55:25.073Z,9.63
2018-04-15T05:57:52.624Z,11.32
2018-04-15T06:00:20.200Z,12.52
2018-04-15T06:02:47.777Z,11.17
2018-04-15T06:05:15.760Z,9.77
2018-04-15T06:07:44.299Z,10.70
2018-04-15T06:10:11.952Z,10.80
2018-04-15T06:12:39.532Z,11.30
2018-04-15T06:15:07.142Z,11.57
2018-04-15T06:17:34.741Z,11.43
2018-04-15T06:20:02.333Z,11.00
2018-04-15T06:22:30.952Z,9.93
2018-04-15T06:24:58.496Z,10.40
2018-04-15T06:27:26.119Z,11.10
2018-04-15T06:29:54.169Z,11.27
2018-04-15T06:32:21.759Z,10.75
2018-04-15T06:34:49.475Z,11.10
2018-04-15T06:37:17.087Z,10.30
2018-04-15T06:39:44.664Z,11.40
2018-04-15T06:42:12.229Z,10.50
2018-04-15T06:44:39.824Z,12.07
2018-04-15T06:47:07.383Z,11.80
2018-04-15T06:49:35.029Z,10.97
2018-04-15T06:52:02.597Z,10.13
2018-04-15T06:57:04.099Z,10.10
2018-04-15T06:59:31.671Z,11.03
2018-04-15T07:01:59.359Z,10.70
2018-04-15T07:04:26.934Z,11.13
2018-04-15T07:06:54.519Z,10.70
2018-04-15T07:09:22.083Z,10.83
2018-04-15T07:11:49.703Z,10.87
2018-04-15T07:14:17.276Z,10.93
2018-04-15T07:16:45.725Z,11.47
2018-04-15T07:19:13.712Z,11.13
2018-04-15T07:21:41.287Z,11.23
2018-04-15T07:24:08.864Z,11.55
2018-04-15T07:26:36.469Z,10.97
2018-04-15T07:29:04.032Z,11.23
2018-04-15T07:31:31.630Z,11.20
2018-04-15T07:33:59.256Z,10.20
2018-04-15T07:36:27.228Z,10.43
2018-04-15T07:38:54.830Z,9.75
2018-04-15T07:41:22.390Z,10.37
2018-04-15T07:43:49.974Z,9.70
2018-04-15T07:46:17.542Z,9.10
2018-04-15T07:48:45.122Z,9.00
2018-04-15T07:51:13.099Z,8.97
2018-04-15T07:53:41.044Z,7.40
2018-04-15T07:56:08.612Z,8.60
2018-04-15T07:58:36.214Z,9.27
2018-04-15T08:01:03.810Z,7.53
2018-04-15T08:03:31.398Z,8.27
2018-04-15T08:05:58.999Z,8.20
2018-04-15T08:08:26.566Z,7.40
2018-04-15T08:10:55.140Z,8.50
2018-04-15T08:13:22.711Z,7.10
2018-04-15T08:15:50.314Z,8.10
2018-04-15T08:18:17.904Z,7.25
2018-04-15T08:20:45.515Z,6.80
2018-04-15T08:23:13.138Z,8.23
2018-04-15T08:25:40.752Z,8.05
2018-04-15T08:28:08.339Z,7.60
2018-04-15T08:30:36.329Z,8.40
2018-04-15T08:33:04.032Z,7.75
2018-04-15T08:35:31.591Z,8.27
2018-04-15T08:37:59.144Z,8.60
2018-04-15T08:40:26.787Z,8.55
2018-04-15T08:42:54.401Z,7.47
2018-04-15T08:45:21.982Z,9.00
2018-04-15T08:47:49.592Z,7.43
2018-04-15T08:50:18.162Z,7.23
2018-04-15T08:52:45.740Z,8.60
2018-04-15T08:55:14.923Z,8.40
2018-04-15T08:57:42.957Z,8.57
2018-04-15T09:00:10.714Z,8.80
2018-04-15T09:02:39.193Z,7.93
2018-04-15T09:05:08.423Z,8.35
2018-04-15T09:07:36.113Z,8.40
2018-04-15T09:10:03.989Z,8.10
2018-04-15T09:12:31.743Z,8.03
2018-04-15T09:15:00.392Z,7.20
2018-04-15T09:17:30.668Z,8.40
2018-04-15T09:19:59.355Z,9.40
2018-04-15T09:22:27.106Z,8.40
2018-04-15T09:24:54.995Z,7.70
2018-04-15T09:27:25.230Z,8.53
2018-04-15T09:29:53.818Z,7.07
2018-04-15T09:32:21.466Z,7.97
2018-04-15T09:34:50.656Z,7.90
2018-04-15T09:37:19.531Z,7.40
2018-04-15T09:39:47.466Z,7.78
2018-04-15T09:42:15.979Z,8.87
2018-04-15T09:44:43.780Z,7.73
2018-04-15T09:47:12.185Z,7.50
2018-04-15T09:49:40.764Z,8.23
2018-04-15T09:52:08.376Z,7.33
2018-04-15T09:54:35.903Z,7.75
2018-04-15T09:57:03.463Z,7.67
2018-04-15T09:59:31.839Z,6.80
2018-04-15T10:01:59.517Z,7.95
2018-04-15T10:04:27.174Z,8.80
2018-04-15T10:06:54.811Z,5.05
2018-04-15T10:09:22.367Z,6.77
2018-04-15T10:11:49.978Z,6.12
2018-04-15T10:14:17.644Z,5.80
2018-04-15T10:16:45.447Z,7.23
2018-04-15T10:19:12.991Z,6.00
2018-04-15T10:21:40.553Z,6.70
2018-04-15T10:24:08.976Z,5.30
2018-04-15T10:26:36.896Z,6.43
2018-04-15T10:29:04.839Z,6.23
2018-04-15T10:31:32.373Z,5.70
2018-04-15T10:33:59.923Z,5.40
2018-04-15T10:36:27.632Z,7.10
2018-04-15T10:38:55.207Z,5.73
2018-04-15T10:41:22.859Z,5.95
2018-04-15T10:43:50.389Z,6.03
2018-04-15T10:46:17.962Z,7.10
2018-04-15T10:48:45.534Z,7.28
2018-04-15T10:51:13.103Z,6.80
2018-04-15T10:53:43.156Z,7.17
2018-04-15T10:56:10.859Z,6.63
2018-04-15T10:58:38.444Z,6.68
2018-04-15T11:01:06.735Z,7.13
2018-04-15T11:03:34.668Z,6.40
2018-04-15T11:06:02.228Z,5.90
2018-04-15T11:08:29.803Z,5.60
2018-04-15T11:10:57.816Z,6.70
2018-04-15T11:13:25.562Z,6.50
2018-04-15T11:15:53.138Z,6.70
2018-04-15T11:18:20.684Z,6.20
2018-04-15T11:20:48.317Z,6.80
2018-04-15T11:23:15.904Z,6.53
2018-04-15T11:25:44.682Z,6.17
2018-04-15T11:28:13.608Z,5.63
2018-04-15T11:30:41.152Z,6.73
2018-04-15T11:33:08.732Z,5.73
2018-04-15T11:35:36.273Z,5.20
2018-04-15T11:38:03.808Z,5.40
2018-04-15T11:40:32.385Z,5.12
2018-04-15T11:43:00.326Z,5.60
2018-04-15T11:45:27.880Z,4.77
2018-04-15T11:47:55.428Z,4.50
2018-04-15T11:50:23.834Z,5.37
2018-04-15T11:52:51.375Z,4.80
2018-04-15T11:55:18.913Z,4.60
2018-04-15T11:57:46.549Z,4.13
2018-04-15T12:00:14.457Z,5.07
2018-04-15T12:02:42.730Z,4.43
2018-04-15T12:05:10.285Z,4.43
2018-04-15T12:07:38.008Z,4.07
2018-04-15T12:10:06.515Z,5.00
2018-04-15T12:12:34.146Z,4.00
2018-04-15T12:15:03.180Z,3.73
2018-04-15T12:17:30.801Z,3.67
2018-04-15T12:19:59.709Z,3.70
2018-04-15T12:22:27.417Z,3.47
2018-04-15T12:24:54.988Z,3.70
2018-04-15T12:27:22.553Z,3.40
2018-04-15T12:29:50.098Z,3.77
2018-04-15T12:32:17.676Z,3.67
2018-04-15T12:34:45.223Z,4.13
2018-04-15T12:37:12.798Z,4.00
2018-04-15T12:39:40.829Z,4.20
2018-04-15T12:42:08.364Z,3.40
2018-04-15T12:44:35.927Z,3.20
2018-04-15T12:47:03.465Z,2.87
2018-04-15T12:49:31.953Z,2.57
2018-04-15T12:51:59.869Z,3.03
2018-04-15T12:54:28.129Z,3.10
2018-04-15T12:56:55.728Z,3.00
2018-04-15T12:59:23.968Z,3.13
2018-04-15T13:01:51.883Z,3.30
2018-04-15T13:04:19.833Z,2.60
2018-04-15T13:06:48.300Z,3.57
2018-04-15T13:09:15.927Z,3.58
2018-04-15T13:11:43.436Z,2.80
2018-04-15T13:14:11.010Z,3.10
2018-04-15T13:16:38.858Z,3.00
2018-04-15T13:19:06.465Z,3.00
2018-04-15T13:21:34.015Z,2.90
2018-04-15T13:24:01.653Z,2.97
2018-04-15T13:26:29.210Z,2.70
2018-04-15T13:28:57.288Z,3.40
2018-04-15T13:31:25.299Z,3.40
2018-04-15T13:33:52.872Z,2.70
2018-04-15T13:36:20.891Z,3.50
2018-04-15T13:38:48.896Z,3.80
2018-04-15T13:41:18.351Z,3.53
2018-04-15T13:43:45.947Z,3.27
2018-04-15T13:46:13.495Z,3.47
2018-04-15T13:48:41.059Z,3.40
2018-04-15T13:51:08.735Z,2.57
2018-04-15T13:53:36.296Z,3.20
2018-04-15T13:56:03.820Z,3.70
2018-04-15T13:58:31.351Z,4.17
2018-04-15T14:00:58.905Z,4.03
2018-04-15T14:03:27.481Z,4.00
2018-04-15T14:05:55.040Z,3.23
2018-04-15T14:08:22.604Z,3.50
2018-04-15T14:10:50.167Z,3.40
2018-04-15T14:13:17.732Z,3.42
2018-04-15T14:15:45.293Z,3.23
2018-04-15T14:18:12.833Z,3.30
2018-04-15T14:20:40.401Z,2.40
2018-04-15T14:23:08.796Z,2.70
2018-04-15T14:25:36.352Z,3.13
2018-04-15T14:28:04.438Z,2.90
2018-04-15T14:30:31.997Z,3.37
2018-04-15T14:32:59.680Z,2.60
2018-04-15T14:35:27.638Z,2.80
2018-04-15T14:37:55.237Z,2.80
2018-04-15T14:40:22.837Z,2.80
2018-04-15T14:42:50.440Z,2.30
2018-04-15T14:45:18.897Z,2.40
2018-04-15T14:47:46.462Z,2.67
2018-04-15T14:50:14.279Z,2.90
2018-04-15T14:52:41.833Z,2.45
2018-04-15T14:55:09.481Z,2.60
2018-04-15T14:57:37.067Z,2.47
2018-04-15T15:00:04.854Z,2.50
2018-04-15T15:02:32.957Z,3.00
2018-04-15T15:05:00.936Z,4.70
2018-04-15T15:07:28.995Z,4.37
2018-04-15T15:09:56.927Z,3.23
2018-04-15T15:12:24.499Z,3.90
2018-04-15T15:14:52.125Z,4.25
2018-04-15T15:17:20.693Z,4.10
2018-04-15T15:19:48.453Z,4.40
2018-04-15T15:22:16.030Z,4.47
2018-04-15T15:24:43.575Z,4.50
2018-04-15T15:27:11.185Z,4.07
2018-04-15T15:29:38.781Z,3.90
2018-04-15T15:32:06.715Z,3.93
2018-04-15T15:34:34.251Z,3.33
2018-04-15T15:37:01.811Z,3.62
2018-04-15T15:39:30.101Z,3.73
2018-04-15T15:41:57.797Z,4.10
2018-04-15T15:44:25.348Z,3.50
2018-04-15T15:46:53.333Z,3.90
2018-04-15T15:49:21.294Z,3.53
2018-04-15T15:51:48.857Z,4.10
2018-04-15T15:54:16.816Z,4.03
2018-04-15T15:56:44.362Z,3.27
2018-04-15T15:59:11.912Z,3.70
2018-04-15T16:01:40.292Z,3.30
2018-04-15T16:04:08.775Z,3.53
2018-04-15T16:06:36.378Z,3.60
2018-04-15T16:09:05.746Z,3.80
2018-04-15T16:11:34.003Z,4.30
2018-04-15T16:14:01.595Z,4.40
2018-04-15T16:16:29.539Z,4.53
2018-04-15T16:18:57.151Z,4.10
2018-04-15T16:21:24.708Z,3.70
2018-04-15T16:23:52.244Z,4.80
2018-04-15T16:26:20.190Z,3.45
2018-04-15T16:28:47.800Z,3.70
2018-04-15T16:31:15.366Z,3.67
2018-04-15T16:33:42.965Z,4.20
2018-04-15T16:36:10.689Z,3.70
2018-04-15T16:38:38.339Z,4.00
2018-04-15T16:41:06.856Z,3.77
2018-04-15T16:46:09.961Z,3.47
2018-04-15T16:48:37.559Z,3.70
2018-04-15T16:51:05.184Z,3.27
2018-04-15T16:53:32.745Z,3.50
2018-04-15T16:56:00.324Z,3.47
2018-04-15T16:58:28.827Z,3.55
2018-04-15T17:00:57.277Z,3.72
2018-04-15T17:03:24.834Z,3.85
2018-04-15T17:05:52.413Z,4.43
2018-04-15T17:08:19.996Z,4.40
2018-04-15T17:10:47.976Z,4.45
2018-04-15T17:13:17.383Z,4.00
2018-04-15T17:15:44.947Z,4.35
2018-04-15T17:18:12.528Z,4.80
2018-04-15T17:20:40.134Z,6.43
2018-04-15T17:23:08.660Z,4.95
2018-04-15T17:25:36.193Z,4.30
2018-04-15T17:28:04.237Z,4.63
2018-04-15T17:30:31.718Z,3.83
2018-04-15T17:32:59.938Z,3.37
2018-04-15T17:35:27.460Z,2.87
2018-04-15T17:37:56.375Z,3.13
2018-04-15T17:40:23.913Z,3.00
2018-04-15T17:42:51.473Z,3.90
2018-04-15T17:45:19.035Z,3.30
2018-04-15T17:47:46.610Z,5.10
2018-04-15T17:50:14.138Z,5.33
2018-04-15T17:52:42.889Z,5.27
2018-04-15T17:55:10.433Z,5.40
2018-04-15T17:57:37.988Z,4.77
2018-04-15T18:00:05.530Z,4.23
2018-04-15T18:02:34.380Z,4.00
2018-04-15T18:05:01.900Z,3.85
2018-04-15T18:07:29.481Z,4.37
2018-04-15T18:09:57.035Z,3.77
2018-04-15T18:12:24.595Z,3.43
2018-04-15T18:14:52.201Z,3.40
2018-04-15T18:17:20.238Z,2.90
2018-04-15T18:19:47.822Z,3.80
2018-04-15T18:22:15.377Z,3.80
2018-04-15T18:24:43.337Z,4.37
2018-04-15T18:27:10.938Z,3.72
2018-04-15T18:29:38.476Z,3.30
2018-04-15T18:32:06.052Z,3.77
2018-04-15T18:34:33.985Z,4.30
2018-04-15T18:37:01.653Z,3.80
2018-04-15T18:39:30.002Z,3.70
2018-04-15T18:41:57.549Z,4.47
2018-04-15T18:44:25.108Z,4.07
2018-04-15T18:46:53.582Z,3.80
2018-04-15T18:49:21.138Z,3.83
2018-04-15T18:51:48.807Z,3.80
2018-04-15T18:54:17.275Z,3.67
2018-04-15T18:56:44.868Z,3.90
2018-04-15T18:59:15.012Z,3.90
2018-04-15T19:01:42.591Z,3.80
2018-04-15T19:04:10.614Z,4.10
2018-04-15T19:06:38.229Z,4.03
2018-04-15T19:09:05.978Z,4.18
2018-04-15T19:11:33.687Z,4.33
2018-04-15T19:14:02.289Z,4.20
2018-04-15T19:16:29.840Z,4.07
2018-04-15T19:18:57.441Z,3.67
2018-04-15T19:21:25.119Z,3.80
2018-04-15T19:23:53.184Z,4.17
2018-04-15T19:26:21.169Z,3.37
2018-04-15T19:28:48.780Z,4.03
2018-04-15T19:31:16.385Z,4.27
2018-04-15T19:33:44.021Z,3.77
2018-04-15T19:36:13.413Z,3.73
2018-04-15T19:38:40.980Z,3.63
2018-04-15T19:41:08.606Z,3.95
2018-04-15T19:43:36.508Z,3.90
2018-04-15T19:46:04.081Z,3.20
2018-04-15T19:48:32.097Z,3.80
2018-04-15T19:50:59.698Z,4.17
2018-04-15T19:53:27.619Z,4.20
2018-04-15T19:55:55.182Z,4.70
2018-04-15T19:58:22.785Z,5.35
2018-04-15T20:00:50.403Z,4.60
2018-04-15T20:03:18.003Z,5.25
2018-04-15T20:05:45.565Z,4.82
2018-04-15T20:08:13.175Z,5.03
2018-04-15T20:10:40.753Z,5.03
2018-04-15T20:13:08.326Z,4.80
2018-04-15T20:15:35.877Z,5.40
2018-04-15T20:18:03.459Z,5.37
2018-04-15T20:20:31.117Z,6.07
2018-04-15T20:22:59.649Z,5.87
2018-04-15T20:25:27.636Z,6.47
2018-04-15T20:27:55.248Z,6.50
2018-04-15T20:30:22.835Z,6.87
2018-04-15T20:32:50.434Z,6.97
2018-04-15T20:35:17.980Z,7.37
2018-04-15T20:37:45.553Z,6.87
2018-04-15T20:40:13.144Z,7.00
2018-04-15T20:42:40.736Z,6.10
2018-04-15T20:45:08.881Z,5.27
2018-04-15T20:47:36.845Z,6.20
2018-04-15T20:50:04.449Z,7.77
2018-04-15T20:52:31.992Z,7.70
2018-04-15T20:55:00.143Z,7.10
2018-04-15T20:57:28.104Z,7.80
2018-04-15T20:59:55.685Z,6.70
2018-04-15T21:02:23.692Z,6.40
2018-04-15T21:04:51.246Z,6.30
2018-04-15T21:07:18.791Z,6.63
2018-04-15T21:09:46.356Z,6.80
2018-04-15T21:12:13.962Z,7.80
2018-04-15T21:14:41.538Z,6.50
2018-04-15T21:17:09.102Z,7.23
2018-04-15T21:19:36.702Z,7.10
2018-04-15T21:22:04.264Z,7.50
2018-04-15T21:24:31.835Z,7.80
2018-04-15T21:27:00.100Z,7.47
2018-04-15T21:29:27.636Z,7.23
2018-04-15T21:31:55.185Z,6.70
2018-04-15T21:34:24.075Z,7.15
2018-04-15T21:36:52.019Z,6.87
2018-04-15T21:39:19.559Z,3.00
2018-04-15T21:41:47.108Z,2.10
2018-04-15T21:44:14.669Z,2.17
2018-04-15T21:46:42.217Z,2.20
2018-04-15T21:49:09.848Z,2.07
2018-04-15T21:51:40.650Z,1.80
2018-04-15T21:54:10.291Z,2.00
2018-04-15T21:56:40.428Z,1.67
2018-04-15T21:59:07.985Z,1.80
2018-04-15T22:01:35.679Z,1.60
2018-04-15T22:04:03.232Z,1.70
2018-04-15T22:06:30.794Z,1.60
2018-04-15T22:08:58.713Z,1.93
2018-04-15T22:11:38.196Z,1.73
2018-04-15T22:14:05.766Z,1.90
2018-04-15T22:16:33.449Z,1.70
2018-04-15T22:19:00.995Z,2.10
2018-04-15T22:21:28.559Z,2.30
2018-04-15T22:23:56.112Z,1.83
2018-04-15T22:26:23.787Z,1.97
2018-04-15T22:28:51.325Z,1.83
2018-04-15T22:31:18.962Z,2.20
2018-04-15T22:33:46.502Z,1.70
2018-04-15T22:36:14.474Z,2.07
2018-04-15T22:38:42.425Z,1.93
2018-04-15T22:41:10.064Z,2.00
2018-04-15T22:43:37.639Z,1.90
2018-04-15T22:46:05.201Z,1.80
2018-04-15T22:48:38.950Z,2.00
2018-04-15T22:51:06.504Z,2.60
2018-04-15T22:53:34.049Z,2.30
2018-04-15T22:56:07.245Z,2.30
2018-04-15T22:58:40.520Z,2.43
2018-04-15T23:01:09.392Z,3.40
2018-04-15T23:03:36.987Z,2.77
2018-04-15T23:06:05.177Z,3.60
2018-04-15T23:08:32.724Z,3.57
2018-04-15T23:11:00.274Z,4.57
2018-04-15T23:13:28.001Z,4.30
2018-04-15T23:15:55.582Z,4.20
2018-04-15T23:18:23.165Z,4.07
2018-04-15T23:20:50.728Z,4.07
2018-04-15T23:23:18.693Z,3.50
2018-04-15T23:25:46.652Z,4.60
2018-04-15T23:28:14.593Z,4.07
2018-04-15T23:30:42.163Z,3.87
2018-04-15T23:33:09.693Z,3.90
2018-04-15T23:35:37.281Z,3.70
2018-04-15T23:38:04.892Z,2.37
2018-04-15T23:40:33.146Z,2.50
2018-04-15T23:43:00.730Z,2.27
2018-04-15T23:45:28.289Z,1.90
2018-04-15T23:47:55.857Z,2.40
2018-04-15T23:50:23.420Z,2.20
2018-04-15T23:52:51.190Z,2.30
2018-04-15T23:55:18.743Z,2.33
2018-04-15T23:57:46.296Z,2.42
